createdAt,value
2023-03-29T00:01:06.829Z,99387.41
2023-03-29T00:03:35.801Z,99371.38
2023-03-29T00:06:05.978Z,99377.47
2023-03-29T00:08:35.359Z,99371.94
2023-03-29T00:11:04.107Z,99372.78
2023-03-29T00:13:32.753Z,99362.53
2023-03-29T00:16:01.107Z,99360.63
2023-03-29T00:18:29.466Z,99362.84
2023-03-29T00:21:01.557Z,99347.66
2023-03-29T00:23:31.590Z,99363.66
2023-03-29T00:25:59.872Z,99365.28
2023-03-29T00:28:28.234Z,99355.34
2023-03-29T00:31:05.774Z,99349.25
2023-03-29T00:33:34.133Z,99347.91
2023-03-29T00:36:04.018Z,99354.78
2023-03-29T00:38:33.962Z,99356.44
2023-03-29T00:41:02.750Z,99354.78
2023-03-29T00:43:31.703Z,99349.84
2023-03-29T00:46:00.274Z,99348.91
2023-03-29T00:48:30.285Z,99351.44
2023-03-29T00:51:01.769Z,99347.56
2023-03-29T00:53:34.553Z,99347.53
2023-03-29T00:56:06.519Z,99342.00
2023-03-29T00:58:38.027Z,99341.44
2023-03-29T01:01:11.714Z,99341.44
2023-03-29T01:03:46.692Z,99338.91
2023-03-29T01:06:18.539Z,99354.66
2023-03-29T01:08:51.730Z,99336.66
2023-03-29T01:11:22.381Z,99339.94
2023-03-29T01:13:53.272Z,99331.97
2023-03-29T01:16:22.746Z,99324.44
2023-03-29T01:18:52.330Z,99324.66
2023-03-29T01:21:29.486Z,99317.50
2023-03-29T01:24:20.748Z,99318.91
2023-03-29T01:26:55.379Z,99321.13
2023-03-29T01:29:27.374Z,99310.81
2023-03-29T01:32:00.439Z,99307.41
2023-03-29T01:34:33.737Z,99311.28
2023-03-29T01:37:06.102Z,99296.84
2023-03-29T01:39:36.571Z,99290.72
2023-03-29T01:42:12.128Z,99305.13
2023-03-29T01:44:49.168Z,99295.13
2023-03-29T01:47:23.627Z,99284.09
2023-03-29T01:49:58.898Z,99287.88
2023-03-29T01:52:31.103Z,99286.19
2023-03-29T01:55:03.929Z,99279.53
2023-03-29T01:57:34.369Z,99275.88
2023-03-29T02:00:11.557Z,99279.44
2023-03-29T02:02:44.156Z,99268.38
2023-03-29T02:05:14.320Z,99267.22
2023-03-29T02:07:43.872Z,99267.81
2023-03-29T02:10:13.173Z,99257.56
2023-03-29T02:12:41.529Z,99265.00
2023-03-29T02:15:15.950Z,99262.09
2023-03-29T02:17:45.060Z,99250.50
2023-03-29T02:20:17.737Z,99250.50
2023-03-29T02:22:51.409Z,99249.91
2023-03-29T02:25:22.730Z,99254.91
2023-03-29T02:27:51.093Z,99252.13
2023-03-29T02:30:22.353Z,99254.38
2023-03-29T02:32:55.524Z,99249.72
2023-03-29T02:35:29.296Z,99243.31
2023-03-29T02:37:59.872Z,99244.13
2023-03-29T02:40:28.236Z,99241.06
2023-03-29T02:42:57.474Z,99246.91
2023-03-29T02:45:27.786Z,99242.25
2023-03-29T02:47:58.264Z,99233.41
2023-03-29T02:50:29.320Z,99241.19
2023-03-29T02:53:00.307Z,99234.81
2023-03-29T02:55:31.424Z,99227.84
2023-03-29T02:57:59.687Z,99227.63
2023-03-29T03:00:29.523Z,99225.69
2023-03-29T03:03:00.638Z,99235.66
2023-03-29T03:05:30.776Z,99230.13
2023-03-29T03:07:59.671Z,99219.56
2023-03-29T03:10:28.173Z,99220.75
2023-03-29T03:12:56.597Z,99225.13
2023-03-29T03:15:26.512Z,99222.31
2023-03-29T03:17:56.317Z,99218.38
2023-03-29T03:20:24.553Z,99221.16
2023-03-29T03:22:52.831Z,99218.38
2023-03-29T03:25:22.204Z,99219.44
2023-03-29T03:27:50.991Z,99216.97
2023-03-29T03:30:19.342Z,99233.75
2023-03-29T03:32:48.193Z,99220.34
2023-03-29T03:35:18.219Z,99223.63
2023-03-29T03:37:46.928Z,99221.94
2023-03-29T03:40:15.603Z,99224.72
2023-03-29T03:42:44.135Z,99223.63
2023-03-29T03:45:12.771Z,99224.09
2023-03-29T03:47:41.342Z,99227.69
2023-03-29T03:50:11.674Z,99233.56
2023-03-29T03:52:41.419Z,99224.69
2023-03-29T03:55:10.840Z,99226.81
2023-03-29T03:57:39.928Z,99217.66
2023-03-29T04:00:19.554Z,99212.06
2023-03-29T04:02:49.417Z,99206.75
2023-03-29T04:05:18.655Z,99211.94
2023-03-29T04:07:49.041Z,99212.75
2023-03-29T04:10:17.408Z,99208.84
2023-03-29T04:12:45.752Z,99211.03
2023-03-29T04:15:14.211Z,99208.19
2023-03-29T04:17:42.653Z,99192.50
2023-03-29T04:20:12.881Z,99193.59
2023-03-29T04:22:42.039Z,99191.75
2023-03-29T04:25:12.178Z,99195.50
2023-03-29T04:27:41.665Z,99187.28
2023-03-29T04:30:11.018Z,99193.06
2023-03-29T04:32:39.429Z,99189.88
2023-03-29T04:35:08.431Z,99179.91
2023-03-29T04:37:40.538Z,99186.50
2023-03-29T04:40:14.591Z,99173.16
2023-03-29T04:42:44.499Z,99183.66
2023-03-29T04:45:14.094Z,99177.72
2023-03-29T04:47:43.714Z,99176.81
2023-03-29T04:50:12.727Z,99170.34
2023-03-29T04:52:41.047Z,99180.00
2023-03-29T04:55:12.238Z,99177.16
2023-03-29T04:57:41.407Z,99175.91
2023-03-29T05:00:15.461Z,99173.69
2023-03-29T05:02:44.442Z,99174.09
2023-03-29T05:05:13.365Z,99183.78
2023-03-29T05:07:42.962Z,99172.06
2023-03-29T05:10:13.655Z,99181.75
2023-03-29T05:12:41.954Z,99176.88
2023-03-29T05:15:11.470Z,99175.75
2023-03-29T05:17:42.436Z,99171.22
2023-03-29T05:20:12.936Z,99174.53
2023-03-29T05:22:41.422Z,99176.19
2023-03-29T05:25:11.617Z,99172.19
2023-03-29T05:27:42.811Z,99178.06
2023-03-29T05:30:12.531Z,99183.09
2023-03-29T05:32:40.932Z,99184.63
2023-03-29T05:35:10.117Z,99177.88
2023-03-29T05:37:39.134Z,99173.53
2023-03-29T05:40:10.628Z,99170.97
2023-03-29T05:42:39.439Z,99176.03
2023-03-29T05:45:10.816Z,99172.53
2023-03-29T05:47:39.105Z,99173.75
2023-03-29T05:50:10.526Z,99166.44
2023-03-29T05:52:38.845Z,99169.00
2023-03-29T05:55:08.100Z,99163.44
2023-03-29T05:57:37.762Z,99168.19
2023-03-29T06:00:14.914Z,99159.53
2023-03-29T06:02:45.151Z,99176.59
2023-03-29T06:05:13.996Z,99171.16
2023-03-29T06:07:42.601Z,99167.34
2023-03-29T06:10:11.741Z,99176.22
2023-03-29T06:12:41.253Z,99175.59
2023-03-29T06:15:10.378Z,99180.09
2023-03-29T06:17:39.829Z,99183.81
2023-03-29T06:20:11.997Z,99170.41
2023-03-29T06:22:40.558Z,99168.91
2023-03-29T06:25:11.095Z,99160.94
2023-03-29T06:27:39.425Z,99168.84
2023-03-29T06:30:09.204Z,99170.75
2023-03-29T06:32:37.639Z,99162.34
2023-03-29T06:35:06.403Z,99164.00
2023-03-29T06:37:36.190Z,99148.31
2023-03-29T06:40:07.550Z,99150.28
2023-03-29T06:42:37.200Z,99151.22
2023-03-29T06:45:06.293Z,99165.13
2023-03-29T06:47:34.687Z,99151.38
2023-03-29T06:50:03.347Z,99130.00
2023-03-29T06:52:31.747Z,99140.19
2023-03-29T06:55:02.090Z,99139.34
2023-03-29T06:57:32.254Z,99140.94
2023-03-29T07:00:00.636Z,99152.25
2023-03-29T07:02:29.144Z,99160.09
2023-03-29T07:04:57.639Z,99145.22
2023-03-29T07:07:33.236Z,99148.38
2023-03-29T07:10:02.993Z,99149.94
2023-03-29T07:12:31.483Z,99144.97
2023-03-29T07:15:00.347Z,99141.81
2023-03-29T07:17:29.021Z,99135.34
2023-03-29T07:19:57.320Z,99118.88
2023-03-29T07:22:25.609Z,99130.00
2023-03-29T07:24:54.516Z,99129.03
2023-03-29T07:27:24.152Z,99121.34
2023-03-29T07:29:52.468Z,99133.84
2023-03-29T07:32:20.939Z,99132.84
2023-03-29T07:34:49.341Z,99129.94
2023-03-29T07:37:17.603Z,99132.00
2023-03-29T07:39:46.101Z,99138.66
2023-03-29T07:42:15.913Z,99126.75
2023-03-29T07:44:45.998Z,99135.75
2023-03-29T07:47:14.487Z,99130.81
2023-03-29T07:49:43.183Z,99138.22
2023-03-29T07:52:11.514Z,99136.09
2023-03-29T07:54:39.943Z,99124.97
2023-03-29T07:57:08.335Z,99124.84
2023-03-29T07:59:36.703Z,99141.41
2023-03-29T08:02:06.863Z,99136.94
2023-03-29T08:04:35.180Z,99134.09
2023-03-29T08:07:04.075Z,99125.94
2023-03-29T08:09:32.367Z,99134.50
2023-03-29T08:12:00.716Z,99130.47
2023-03-29T08:14:29.249Z,99137.16
2023-03-29T08:16:57.627Z,99113.88
2023-03-29T08:19:27.912Z,99122.25
2023-03-29T08:21:56.678Z,99115.53
2023-03-29T08:24:25.059Z,99122.75
2023-03-29T08:26:53.550Z,99128.97
2023-03-29T08:29:22.628Z,99126.69
2023-03-29T08:31:51.003Z,99126.34
2023-03-29T08:34:19.288Z,99120.41
2023-03-29T08:36:49.085Z,99115.94
2023-03-29T08:39:19.470Z,99119.38
2023-03-29T08:41:55.084Z,99120.00
2023-03-29T08:44:36.448Z,99132.44
2023-03-29T08:47:11.778Z,99123.09
2023-03-29T08:49:42.069Z,99128.63
2023-03-29T08:52:21.833Z,99113.66
2023-03-29T08:54:52.566Z,99113.66
2023-03-29T08:57:24.497Z,99104.16
2023-03-29T08:59:54.306Z,99108.25
2023-03-29T09:02:25.378Z,99106.47
2023-03-29T09:04:54.321Z,99083.75
2023-03-29T09:07:26.551Z,99099.38
2023-03-29T09:09:55.298Z,99101.66
2023-03-29T09:12:31.559Z,99089.34
2023-03-29T09:15:08.726Z,99095.63
2023-03-29T09:17:43.138Z,99100.19
2023-03-29T09:20:21.990Z,99100.00
2023-03-29T09:23:00.502Z,99103.28
2023-03-29T09:25:50.843Z,99099.06
2023-03-29T09:28:25.464Z,99103.09
2023-03-29T09:30:59.510Z,99110.22
2023-03-29T09:33:28.703Z,99105.34
2023-03-29T09:36:02.254Z,99105.41
2023-03-29T09:38:32.580Z,99112.09
2023-03-29T09:41:06.905Z,99115.66
2023-03-29T09:43:37.779Z,99125.78
2023-03-29T09:46:08.631Z,99120.34
2023-03-29T09:48:40.373Z,99124.38
2023-03-29T09:51:11.665Z,99124.94
2023-03-29T09:53:41.889Z,99131.94
2023-03-29T09:56:10.840Z,99125.25
2023-03-29T09:58:39.260Z,99130.41
2023-03-29T10:01:09.569Z,99135.34
2023-03-29T10:03:38.372Z,99131.06
2023-03-29T10:06:09.876Z,99145.72
2023-03-29T10:08:42.499Z,99151.59
2023-03-29T10:11:14.726Z,99131.75
2023-03-29T10:13:46.070Z,99138.91
2023-03-29T10:16:20.641Z,99138.31
2023-03-29T10:18:50.318Z,99130.34
2023-03-29T10:21:21.195Z,99145.50
2023-03-29T10:23:52.567Z,99140.28
2023-03-29T10:26:28.120Z,99134.91
2023-03-29T10:29:00.462Z,99143.13
2023-03-29T10:31:31.381Z,99131.06
2023-03-29T10:34:04.059Z,99124.75
2023-03-29T10:36:32.391Z,99119.50
2023-03-29T10:39:06.040Z,99148.13
2023-03-29T10:41:35.121Z,99121.38
2023-03-29T10:44:03.574Z,99139.72
2023-03-29T10:46:33.158Z,99133.25
2023-03-29T10:49:04.621Z,99141.69
2023-03-29T10:51:34.810Z,99137.69
2023-03-29T10:54:05.796Z,99133.06
2023-03-29T10:56:40.381Z,99142.84
2023-03-29T10:59:30.135Z,99142.75
2023-03-29T11:02:46.005Z,99144.31
2023-03-29T11:05:25.990Z,99145.47
2023-03-29T11:08:07.038Z,99152.34
2023-03-29T11:10:43.922Z,99158.72
2023-03-29T11:13:16.867Z,99150.50
2023-03-29T11:15:54.802Z,99150.72
2023-03-29T11:18:35.609Z,99149.06
2023-03-29T11:21:10.735Z,99149.06
2023-03-29T11:23:49.591Z,99145.16
2023-03-29T11:26:22.779Z,99134.66
2023-03-29T11:28:54.576Z,99145.75
2023-03-29T11:31:31.477Z,99132.41
2023-03-29T11:34:15.721Z,99139.69
2023-03-29T11:36:50.779Z,99142.78
2023-03-29T11:39:27.174Z,99145.34
2023-03-29T11:42:02.568Z,99143.19
2023-03-29T11:44:32.278Z,99137.13
2023-03-29T11:47:05.156Z,99132.69
2023-03-29T11:49:37.480Z,99155.44
2023-03-29T11:52:09.045Z,99136.50
2023-03-29T11:54:41.130Z,99143.00
2023-03-29T11:57:16.036Z,99144.50
2023-03-29T11:59:50.761Z,99144.13
2023-03-29T12:02:24.239Z,99151.00
2023-03-29T12:04:54.448Z,99136.09
2023-03-29T12:07:28.313Z,99141.63
2023-03-29T12:10:00.550Z,99150.06
2023-03-29T12:12:36.881Z,99150.69
2023-03-29T12:15:07.822Z,99170.84
2023-03-29T12:17:39.684Z,99158.28
2023-03-29T12:20:13.524Z,99158.28
2023-03-29T12:22:42.207Z,99172.25
2023-03-29T12:25:18.475Z,99159.22
2023-03-29T12:28:01.149Z,99169.56
2023-03-29T12:30:39.052Z,99174.53
2023-03-29T12:33:39.119Z,99170.66
2023-03-29T12:36:16.597Z,99162.59
2023-03-29T12:38:45.717Z,99173.72
2023-03-29T12:41:19.237Z,99175.47
2023-03-29T12:43:49.595Z,99179.66
2023-03-29T12:46:19.562Z,99164.22
2023-03-29T12:48:50.965Z,99171.00
2023-03-29T12:51:21.791Z,99181.59
2023-03-29T12:53:51.992Z,99202.13
2023-03-29T12:56:23.771Z,99174.09
2023-03-29T12:58:57.808Z,99177.78
2023-03-29T13:01:29.525Z,99177.16
2023-03-29T13:04:18.775Z,99188.25
2023-03-29T13:07:05.138Z,99188.25
2023-03-29T13:09:37.725Z,99187.50
2023-03-29T13:12:09.151Z,99180.00
2023-03-29T13:14:42.917Z,99171.19
2023-03-29T13:17:18.743Z,99177.44
2023-03-29T13:19:50.408Z,99182.19
2023-03-29T13:22:26.595Z,99184.38
2023-03-29T13:25:11.289Z,99185.56
2023-03-29T13:27:46.832Z,99185.97
2023-03-29T13:30:22.967Z,99184.88
2023-03-29T13:32:57.109Z,99191.53
2023-03-29T13:35:35.607Z,99188.75
2023-03-29T13:38:10.573Z,99185.97
2023-03-29T13:40:48.035Z,99185.47
2023-03-29T13:43:25.073Z,99187.44
2023-03-29T13:46:06.900Z,99197.72
2023-03-29T13:48:51.256Z,99199.97
2023-03-29T13:51:28.940Z,99198.94
2023-03-29T13:54:00.811Z,99197.78
2023-03-29T13:56:32.980Z,99188.63
2023-03-29T13:59:06.332Z,99199.16
2023-03-29T14:01:39.634Z,99210.03
2023-03-29T14:04:14.169Z,99205.81
2023-03-29T14:06:43.487Z,99210.97
2023-03-29T14:09:15.558Z,99203.53
2023-03-29T14:11:45.993Z,99202.63
2023-03-29T14:14:14.896Z,99219.81
2023-03-29T14:16:44.663Z,99203.38
2023-03-29T14:19:17.811Z,99208.72
2023-03-29T14:21:46.750Z,99208.09
2023-03-29T14:24:24.479Z,99226.94
2023-03-29T14:26:54.497Z,99214.19
2023-03-29T14:29:25.388Z,99215.84
2023-03-29T14:31:55.963Z,99216.34
2023-03-29T14:34:24.442Z,99218.50
2023-03-29T14:36:54.094Z,99202.38
2023-03-29T14:39:23.766Z,99207.41
2023-03-29T14:41:53.334Z,99224.38
